Time;durP1;ratioP1;P1;durP2;ratioP2;P2;SDS_P1;SDS_P2;PMS_P1;PMS_P2;Temp;Humidity;BMP_temperature;BMP_pressure;BME280_temperature;BME280_humidity;BME280_pressure;Samples;Min_cycle;Max_cycle;Signal;HPM_P1;HPM_P2
2022/11/16 00:01:28;;;;;;;2.77;2.30;;;;;;;;;;5048079;28;20585;-65
2022/11/16 00:03:57;;;;;;;3.60;1.77;;;;;;;;;;5048332;28;20246;-65
2022/11/16 00:06:24;;;;;;;1.97;1.77;;;;;;;;;;5048455;28;20227;-66
2022/11/16 00:11:33;;;;;;;3.27;1.60;;;;;;;;;;5046767;28;20245;-65
2022/11/16 00:14:00;;;;;;;1.50;1.40;;;;;;;;;;5048203;28;20207;-66
2022/11/16 00:16:29;;;;;;;2.00;1.80;;;;;;;;;;5048326;28;20212;-66
2022/11/16 00:18:56;;;;;;;1.43;1.37;;;;;;;;;;5048442;28;20674;-66
2022/11/16 00:21:24;;;;;;;1.53;1.50;;;;;;;;;;5049358;28;20207;-65
2022/11/16 00:23:51;;;;;;;6.37;1.93;;;;;;;;;;5047976;28;20210;-65
2022/11/16 00:26:18;;;;;;;2.03;1.60;;;;;;;;;;5048982;28;20200;-66
2022/11/16 00:28:45;;;;;;;1.70;1.60;;;;;;;;;;5044199;28;20235;-65
2022/11/16 00:31:12;;;;;;;1.70;1.60;;;;;;;;;;5048897;28;20218;-65
2022/11/16 00:33:41;;;;;;;1.67;1.23;;;;;;;;;;5046994;28;20694;-65
2022/11/16 00:36:09;;;;;;;1.67;1.60;;;;;;;;;;5049085;28;20210;-65
2022/11/16 00:38:36;;;;;;;1.73;1.63;;;;;;;;;;5048318;28;20208;-65
2022/11/16 00:41:03;;;;;;;1.77;1.67;;;;;;;;;;5048539;28;20214;-66
2022/11/16 00:43:30;;;;;;;3.73;1.77;;;;;;;;;;5047790;28;20662;-65
2022/11/16 00:45:57;;;;;;;2.03;1.53;;;;;;;;;;5047436;28;20657;-65
2022/11/16 00:48:25;;;;;;;4.50;1.80;;;;;;;;;;5047464;28;21869;-65
2022/11/16 00:50:53;;;;;;;2.43;2.30;;;;;;;;;;5047710;28;20681;-65
2022/11/16 00:53:21;;;;;;;1.73;1.63;;;;;;;;;;5046101;28;20228;-65
2022/11/16 00:55:48;;;;;;;2.10;2.00;;;;;;;;;;5047414;28;20219;-65
2022/11/16 00:58:16;;;;;;;2.50;2.30;;;;;;;;;;5045484;28;20211;-65
2022/11/16 01:00:43;;;;;;;2.60;2.40;;;;;;;;;;5047664;28;20215;-64
2022/11/16 01:03:10;;;;;;;2.73;2.53;;;;;;;;;;5047511;28;20208;-64
2022/11/16 01:05:37;;;;;;;3.13;2.50;;;;;;;;;;5047397;28;20207;-64
2022/11/16 01:08:06;;;;;;;2.40;2.20;;;;;;;;;;5047160;28;20212;-65
2022/11/16 01:10:33;;;;;;;2.87;2.47;;;;;;;;;;5045705;28;20440;-65
2022/11/16 01:12:59;;;;;;;2.40;2.30;;;;;;;;;;5046965;28;20228;-64
2022/11/16 01:15:27;;;;;;;2.23;2.13;;;;;;;;;;5047039;28;20211;-64
2022/11/16 01:17:55;;;;;;;2.37;2.17;;;;;;;;;;5048412;28;20204;-64
2022/11/16 01:20:23;;;;;;;2.97;2.37;;;;;;;;;;5048872;28;20200;-64
2022/11/16 01:22:50;;;;;;;3.20;2.90;;;;;;;;;;5048553;28;20230;-65
2022/11/16 01:25:19;;;;;;;3.00;2.60;;;;;;;;;;5047493;28;20204;-65
2022/11/16 01:27:46;;;;;;;2.57;2.37;;;;;;;;;;5046638;28;20207;-65
2022/11/16 01:30:14;;;;;;;2.60;2.40;;;;;;;;;;5047758;28;20326;-64
2022/11/16 01:32:41;;;;;;;3.47;2.57;;;;;;;;;;5046664;28;20270;-65
2022/11/16 01:35:08;;;;;;;2.57;2.37;;;;;;;;;;5047474;28;20261;-66
2022/11/16 01:37:35;;;;;;;4.70;2.63;;;;;;;;;;5049395;28;20215;-65
2022/11/16 01:40:02;;;;;;;3.17;2.53;;;;;;;;;;5050894;28;20203;-65
2022/11/16 01:42:32;;;;;;;2.73;2.53;;;;;;;;;;5050337;28;20191;-65
2022/11/16 01:45:01;;;;;;;2.47;2.30;;;;;;;;;;5051153;28;20721;-65
2022/11/16 01:47:28;;;;;;;2.70;2.50;;;;;;;;;;5050891;28;20211;-66
2022/11/16 01:49:57;;;;;;;4.77;2.30;;;;;;;;;;5050831;28;20230;-65
2022/11/16 01:52:27;;;;;;;2.43;2.23;;;;;;;;;;5050537;28;20231;-65
2022/11/16 01:54:54;;;;;;;2.67;2.47;;;;;;;;;;5050921;28;20349;-65
2022/11/16 01:57:23;;;;;;;2.13;2.00;;;;;;;;;;5047508;28;20657;-65
2022/11/16 01:59:54;;;;;;;2.47;2.27;;;;;;;;;;5050740;28;20204;-66
2022/11/16 02:02:21;;;;;;;2.33;1.83;;;;;;;;;;5049609;28;20222;-65
2022/11/16 02:04:49;;;;;;;3.23;2.40;;;;;;;;;;5050319;28;20215;-65
2022/11/16 02:07:20;;;;;;;2.47;2.27;;;;;;;;;;5050098;28;20204;-65
2022/11/16 02:09:56;;;;;;;4.80;2.43;;;;;;;;;;5048152;28;20215;-65
2022/11/16 02:12:38;;;;;;;2.10;1.93;;;;;;;;;;5050191;28;20314;-65
2022/11/16 02:15:11;;;;;;;4.47;2.30;;;;;;;;;;5050068;28;20210;-65
2022/11/16 02:17:41;;;;;;;2.30;2.20;;;;;;;;;;5049961;28;20588;-65
2022/11/16 02:20:29;;;;;;;2.97;2.50;;;;;;;;;;5050147;28;20204;-64
2022/11/16 02:23:12;;;;;;;2.00;1.90;;;;;;;;;;5049960;28;20551;-64
2022/11/16 02:25:45;;;;;;;5.77;2.20;;;;;;;;;;5049971;28;20219;-64
2022/11/16 02:28:21;;;;;;;2.30;2.07;;;;;;;;;;5050250;28;20211;-64
2022/11/16 02:30:51;;;;;;;3.40;2.53;;;;;;;;;;5049053;28;20211;-64
2022/11/16 02:33:21;;;;;;;3.07;2.43;;;;;;;;;;5050126;28;20224;-64
2022/11/16 02:35:51;;;;;;;2.57;2.37;;;;;;;;;;5049677;28;20196;-64
2022/11/16 02:38:19;;;;;;;2.60;2.40;;;;;;;;;;5048434;28;20234;-65
2022/11/16 02:40:48;;;;;;;2.37;2.23;;;;;;;;;;5049130;28;20207;-65
2022/11/16 02:43:19;;;;;;;2.53;2.43;;;;;;;;;;5050762;28;20212;-65
2022/11/16 02:45:48;;;;;;;2.50;2.40;;;;;;;;;;5050109;28;20207;-65
2022/11/16 02:48:18;;;;;;;2.33;2.20;;;;;;;;;;5050336;28;20204;-63
2022/11/16 02:50:45;;;;;;;3.80;2.37;;;;;;;;;;5049911;28;20212;-63
2022/11/16 02:53:13;;;;;;;2.67;2.50;;;;;;;;;;5050216;28;20606;-63
2022/11/16 02:55:40;;;;;;;3.80;2.43;;;;;;;;;;5049628;28;20223;-65
2022/11/16 02:58:09;;;;;;;3.07;2.80;;;;;;;;;;5050468;28;20199;-63
2022/11/16 03:00:42;;;;;;;3.40;2.23;;;;;;;;;;5048182;28;20211;-63
2022/11/16 03:03:12;;;;;;;2.20;2.10;;;;;;;;;;5050183;28;20204;-64
2022/11/16 03:05:42;;;;;;;3.80;3.00;;;;;;;;;;5049688;28;20223;-63
2022/11/16 03:08:18;;;;;;;2.70;2.50;;;;;;;;;;5049822;28;20203;-63
2022/11/16 03:13:34;;;;;;;2.63;2.40;;;;;;;;;;5048386;28;20226;-63
2022/11/16 03:16:03;;;;;;;3.00;2.80;;;;;;;;;;5047896;28;20696;-63
2022/11/16 03:18:30;;;;;;;3.80;2.80;;;;;;;;;;5046706;28;20218;-63
2022/11/16 03:21:04;;;;;;;3.57;3.20;;;;;;;;;;5049041;28;20341;-63
2022/11/16 03:23:32;;;;;;;2.70;2.50;;;;;;;;;;5046972;28;20213;-64
2022/11/16 03:26:00;;;;;;;3.27;2.97;;;;;;;;;;5036116;28;20199;-66
2022/11/16 03:28:32;;;;;;;3.80;3.20;;;;;;;;;;5047494;28;20227;-65
2022/11/16 03:31:02;;;;;;;3.67;3.10;;;;;;;;;;5048886;28;20200;-63
2022/11/16 03:33:31;;;;;;;3.77;3.07;;;;;;;;;;5046972;28;20702;-63
2022/11/16 03:36:01;;;;;;;3.27;2.90;;;;;;;;;;5047515;28;20196;-64
2022/11/16 03:38:29;;;;;;;5.03;3.67;;;;;;;;;;5045835;28;20199;-66
2022/11/16 03:40:58;;;;;;;3.70;3.37;;;;;;;;;;5045945;28;20218;-66
2022/11/16 03:43:26;;;;;;;4.13;3.73;;;;;;;;;;5048101;28;20207;-65
2022/11/16 03:45:53;;;;;;;5.43;3.20;;;;;;;;;;5047314;28;20199;-63
2022/11/16 03:48:20;;;;;;;6.30;3.87;;;;;;;;;;5046492;28;20666;-63
2022/11/16 03:50:47;;;;;;;4.37;3.73;;;;;;;;;;5045000;28;20647;-64
2022/11/16 03:53:16;;;;;;;3.50;3.23;;;;;;;;;;5045054;28;20861;-64
2022/11/16 03:55:43;;;;;;;4.07;3.53;;;;;;;;;;5046661;28;20239;-63
2022/11/16 03:58:10;;;;;;;5.70;3.93;;;;;;;;;;5046532;28;20207;-63
2022/11/16 04:00:38;;;;;;;4.53;3.77;;;;;;;;;;5045947;28;20208;-67
2022/11/16 04:03:08;;;;;;;4.47;3.67;;;;;;;;;;5046317;28;20690;-64
2022/11/16 04:25:01;;;;;;;4.23;3.83;;;;;;;;;;5046573;28;20740;-64
2022/11/16 04:30:14;;;;;;;7.97;3.47;;;;;;;;;;5047013;28;20651;-66
2022/11/16 04:38:10;;;;;;;4.57;4.10;;;;;;;;;;5046438;28;20202;-64
2022/11/16 04:40:38;;;;;;;4.00;3.60;;;;;;;;;;5048332;28;20212;-65
2022/11/16 04:43:06;;;;;;;4.77;4.10;;;;;;;;;;5047706;28;20195;-65
2022/11/16 04:48:19;;;;;;;6.10;4.83;;;;;;;;;;5047356;28;20210;-65
2022/11/16 04:50:47;;;;;;;5.00;4.50;;;;;;;;;;5045143;28;20219;-65
2022/11/16 04:53:14;;;;;;;5.07;4.57;;;;;;;;;;5047364;28;20232;-65
2022/11/16 04:55:43;;;;;;;9.83;4.53;;;;;;;;;;5047843;28;20242;-64
2022/11/16 04:58:10;;;;;;;5.77;4.50;;;;;;;;;;5047412;28;20208;-64
2022/11/16 05:00:37;;;;;;;5.40;4.87;;;;;;;;;;5046931;28;20207;-65
2022/11/16 05:03:04;;;;;;;4.70;4.30;;;;;;;;;;5043440;28;20199;-65
2022/11/16 05:05:31;;;;;;;8.13;4.97;;;;;;;;;;5046139;28;20211;-64
2022/11/16 05:07:58;;;;;;;5.07;4.57;;;;;;;;;;5047613;28;20203;-65
2022/11/16 05:10:26;;;;;;;5.97;4.43;;;;;;;;;;5047577;28;20223;-65
2022/11/16 05:12:54;;;;;;;9.87;5.40;;;;;;;;;;5048191;28;20584;-64
2022/11/16 05:15:21;;;;;;;7.47;5.03;;;;;;;;;;5049207;28;20242;-65
2022/11/16 05:18:04;;;;;;;5.30;4.37;;;;;;;;;;5051118;28;20740;-64
2022/11/16 05:26:00;;;;;;;6.37;5.07;;;;;;;;;;5019362;28;20218;-65
2022/11/16 05:28:31;;;;;;;5.77;4.67;;;;;;;;;;5047024;28;20242;-66
2022/11/16 05:30:58;;;;;;;5.17;4.20;;;;;;;;;;5048486;28;20208;-65
2022/11/16 05:33:25;;;;;;;8.33;4.40;;;;;;;;;;5049759;28;20227;-65
2022/11/16 05:35:53;;;;;;;8.20;5.07;;;;;;;;;;5050448;28;20200;-65
2022/11/16 05:38:20;;;;;;;9.33;5.20;;;;;;;;;;5051271;28;20204;-65
2022/11/16 05:40:47;;;;;;;6.00;4.83;;;;;;;;;;5051337;28;20208;-64
2022/11/16 05:43:14;;;;;;;6.87;5.17;;;;;;;;;;5051372;28;20210;-64
2022/11/16 05:45:43;;;;;;;6.70;5.03;;;;;;;;;;5049513;28;20575;-64
2022/11/16 05:48:10;;;;;;;5.37;4.77;;;;;;;;;;5048697;28;20214;-64
2022/11/16 05:50:37;;;;;;;11.33;5.40;;;;;;;;;;5051318;28;20199;-63
2022/11/16 05:53:04;;;;;;;4.90;4.40;;;;;;;;;;5051100;28;20214;-63
2022/11/16 05:55:33;;;;;;;6.50;4.93;;;;;;;;;;5050493;28;20219;-61
2022/11/16 05:58:00;;;;;;;5.70;4.63;;;;;;;;;;5049326;28;20203;-64
2022/11/16 06:00:27;;;;;;;6.40;4.47;;;;;;;;;;5050173;28;20203;-64
2022/11/16 06:02:56;;;;;;;5.47;4.53;;;;;;;;;;5051727;28;20204;-64
2022/11/16 06:05:23;;;;;;;6.80;4.70;;;;;;;;;;5047637;28;20210;-65
2022/11/16 06:07:50;;;;;;;6.23;4.37;;;;;;;;;;5049992;28;20211;-64
2022/11/16 06:10:17;;;;;;;5.67;4.83;;;;;;;;;;5050162;28;20215;-64
2022/11/16 06:12:44;;;;;;;7.07;4.80;;;;;;;;;;5051142;28;20208;-64
2022/11/16 06:15:11;;;;;;;6.40;4.90;;;;;;;;;;5049584;28;20772;-65
2022/11/16 06:17:38;;;;;;;6.40;4.30;;;;;;;;;;5050562;28;20202;-65
2022/11/16 06:20:07;;;;;;;7.77;4.63;;;;;;;;;;5050814;28;20208;-65
2022/11/16 06:22:35;;;;;;;4.77;4.23;;;;;;;;;;5046476;28;20301;-64
2022/11/16 06:25:02;;;;;;;5.63;4.70;;;;;;;;;;5049582;28;20203;-65
2022/11/16 06:27:29;;;;;;;5.90;4.67;;;;;;;;;;5049485;28;20253;-64
2022/11/16 06:29:56;;;;;;;7.40;4.53;;;;;;;;;;5050131;28;20302;-63
2022/11/16 06:32:23;;;;;;;6.70;4.63;;;;;;;;;;5049485;28;20204;-64
2022/11/16 06:34:50;;;;;;;5.50;4.90;;;;;;;;;;5049646;28;20254;-67
2022/11/16 06:37:19;;;;;;;7.03;4.67;;;;;;;;;;5049699;28;20653;-65
2022/11/16 06:42:50;;;;;;;6.00;4.53;;;;;;;;;;5034558;28;20966;-64
2022/11/16 06:45:18;;;;;;;5.47;4.80;;;;;;;;;;5040529;28;20196;-67
2022/11/16 06:47:45;;;;;;;6.37;4.17;;;;;;;;;;5047057;28;20203;-65
2022/11/16 06:50:12;;;;;;;8.30;4.60;;;;;;;;;;5048451;28;20655;-65
2022/11/16 06:52:40;;;;;;;4.80;3.60;;;;;;;;;;5047073;28;20203;-64
2022/11/16 06:55:07;;;;;;;5.87;4.60;;;;;;;;;;5048007;28;20227;-64
2022/11/16 06:57:35;;;;;;;6.97;4.77;;;;;;;;;;5048338;28;20204;-64
2022/11/16 07:00:02;;;;;;;4.90;4.40;;;;;;;;;;5047891;28;20218;-64
2022/11/16 07:02:29;;;;;;;6.53;4.40;;;;;;;;;;5049767;28;20211;-64
2022/11/16 07:04:56;;;;;;;6.20;4.83;;;;;;;;;;5049526;28;20212;-64
2022/11/16 07:07:23;;;;;;;4.40;3.73;;;;;;;;;;5049439;28;20235;-63
2022/11/16 07:09:51;;;;;;;5.80;4.50;;;;;;;;;;5049116;28;20689;-64
2022/11/16 07:12:18;;;;;;;4.70;4.17;;;;;;;;;;5049050;28;20211;-63
2022/11/16 07:14:45;;;;;;;5.30;3.93;;;;;;;;;;5049198;28;20232;-64
2022/11/16 07:17:13;;;;;;;4.27;3.63;;;;;;;;;;5049447;28;20211;-64
2022/11/16 07:19:40;;;;;;;5.87;3.83;;;;;;;;;;5049235;28;20230;-65
2022/11/16 07:22:07;;;;;;;4.63;3.67;;;;;;;;;;5049138;28;20595;-65
2022/11/16 07:24:34;;;;;;;4.90;4.23;;;;;;;;;;5049421;28;20207;-65
2022/11/16 07:27:02;;;;;;;6.50;4.53;;;;;;;;;;5049266;28;20218;-65
2022/11/16 07:29:30;;;;;;;5.20;3.60;;;;;;;;;;5049081;28;20254;-64
2022/11/16 07:31:57;;;;;;;6.43;3.87;;;;;;;;;;5049321;28;20214;-64
2022/11/16 07:34:24;;;;;;;3.73;3.27;;;;;;;;;;5048489;28;20741;-64
2022/11/16 07:36:51;;;;;;;5.03;3.37;;;;;;;;;;5048473;28;20685;-64
2022/11/16 07:39:20;;;;;;;8.30;3.80;;;;;;;;;;5047643;28;20568;-65
2022/11/16 07:41:49;;;;;;;4.27;3.10;;;;;;;;;;5047158;28;20208;-65
2022/11/16 07:44:17;;;;;;;5.63;3.30;;;;;;;;;;5048656;28;20214;-65
2022/11/16 07:46:44;;;;;;;3.20;2.93;;;;;;;;;;5048729;28;20306;-64
2022/11/16 07:49:13;;;;;;;4.73;3.43;;;;;;;;;;5048690;28;20212;-65
2022/11/16 07:51:40;;;;;;;3.57;3.03;;;;;;;;;;5048845;28;20587;-65
2022/11/16 07:54:07;;;;;;;7.33;3.07;;;;;;;;;;5048336;28;20229;-65
2022/11/16 07:56:34;;;;;;;6.07;3.40;;;;;;;;;;5048085;28;20208;-64
2022/11/16 07:59:01;;;;;;;4.10;2.70;;;;;;;;;;5048475;28;20204;-65
2022/11/16 08:01:31;;;;;;;6.00;4.10;;;;;;;;;;5048633;28;20212;-64
2022/11/16 08:04:00;;;;;;;6.37;3.57;;;;;;;;;;5048578;28;20731;-65
2022/11/16 08:06:28;;;;;;;5.87;3.53;;;;;;;;;;5048420;28;20208;-65
2022/11/16 08:08:55;;;;;;;8.17;3.83;;;;;;;;;;5048410;28;20208;-65
2022/11/16 08:11:22;;;;;;;4.47;3.57;;;;;;;;;;5048676;28;20863;-65
2022/11/16 08:13:49;;;;;;;7.00;3.67;;;;;;;;;;5048301;28;20238;-65
2022/11/16 08:16:18;;;;;;;3.50;3.20;;;;;;;;;;5048202;28;20207;-65
2022/11/16 08:18:46;;;;;;;7.93;4.00;;;;;;;;;;5047252;28;20931;-65
2022/11/16 08:21:14;;;;;;;4.23;2.63;;;;;;;;;;5048349;28;20604;-65
2022/11/16 08:23:43;;;;;;;3.37;2.90;;;;;;;;;;5048493;28;20217;-65
2022/11/16 08:26:13;;;;;;;3.27;2.50;;;;;;;;;;5048703;28;20203;-65
2022/11/16 08:28:40;;;;;;;2.33;2.17;;;;;;;;;;5048855;28;20730;-65
2022/11/16 08:31:11;;;;;;;5.10;2.20;;;;;;;;;;5049131;28;20670;-65
2022/11/16 08:33:38;;;;;;;2.07;1.87;;;;;;;;;;5048725;28;20211;-64
2022/11/16 08:36:07;;;;;;;1.70;1.60;;;;;;;;;;5048090;28;20215;-65
2022/11/16 08:38:34;;;;;;;1.27;1.27;;;;;;;;;;5048499;28;20218;-64
2022/11/16 08:41:01;;;;;;;0.70;0.70;;;;;;;;;;5047818;28;20207;-66
2022/11/16 08:43:29;;;;;;;0.97;0.97;;;;;;;;;;5048745;28;20214;-64
2022/11/16 08:45:58;;;;;;;3.27;0.80;;;;;;;;;;5050920;28;20632;-65
2022/11/16 08:48:25;;;;;;;0.63;0.63;;;;;;;;;;5050754;28;20218;-63
2022/11/16 08:50:52;;;;;;;1.83;0.60;;;;;;;;;;5053137;28;20207;-64
2022/11/16 08:53:21;;;;;;;1.23;0.70;;;;;;;;;;5051051;28;20214;-64
2022/11/16 08:55:48;;;;;;;0.90;0.90;;;;;;;;;;5052808;28;20242;-64
2022/11/16 08:58:15;;;;;;;1.40;0.97;;;;;;;;;;5052524;28;20207;-65
2022/11/16 09:00:42;;;;;;;2.17;1.10;;;;;;;;;;5050261;28;20219;-65
2022/11/16 09:03:09;;;;;;;1.37;0.50;;;;;;;;;;5052501;28;20207;-66
2022/11/16 09:05:37;;;;;;;1.10;0.90;;;;;;;;;;5052729;28;20208;-65
2022/11/16 09:08:05;;;;;;;6.33;1.00;;;;;;;;;;5053065;28;20219;-65
2022/11/16 09:10:33;;;;;;;1.90;0.77;;;;;;;;;;5050896;28;20655;-65
2022/11/16 09:13:01;;;;;;;4.07;1.17;;;;;;;;;;5052148;28;20208;-65
2022/11/16 09:15:29;;;;;;;6.33;0.93;;;;;;;;;;5052311;28;20263;-66
2022/11/16 09:17:56;;;;;;;1.07;0.67;;;;;;;;;;5050941;28;20212;-65
2022/11/16 09:20:25;;;;;;;3.40;1.03;;;;;;;;;;5052381;28;20212;-65
2022/11/16 09:22:52;;;;;;;3.10;1.00;;;;;;;;;;5047726;28;20204;-64
2022/11/16 09:25:19;;;;;;;1.00;0.80;;;;;;;;;;5048613;28;20203;-65
2022/11/16 09:27:48;;;;;;;2.30;1.33;;;;;;;;;;5052281;28;20226;-66
2022/11/16 09:30:16;;;;;;;1.10;0.87;;;;;;;;;;5052222;28;20315;-64
2022/11/16 09:32:43;;;;;;;0.80;0.73;;;;;;;;;;5048968;28;20210;-64
2022/11/16 09:35:10;;;;;;;3.53;0.37;;;;;;;;;;5051463;28;20231;-66
2022/11/16 09:37:37;;;;;;;2.33;0.57;;;;;;;;;;5049505;28;20199;-62
2022/11/16 09:40:05;;;;;;;0.50;0.50;;;;;;;;;;5051396;28;20563;-67
2022/11/16 09:42:38;;;;;;;2.50;0.50;;;;;;;;;;5048568;28;20196;-64
2022/11/16 09:45:07;;;;;;;3.80;0.40;;;;;;;;;;5049404;28;20207;-64
2022/11/16 09:47:44;;;;;;;0.17;0.17;;;;;;;;;;5049549;28;20227;-64
2022/11/16 09:50:19;;;;;;;0.43;0.30;;;;;;;;;;5051638;28;20215;-63
2022/11/16 09:52:49;;;;;;;1.50;0.40;;;;;;;;;;5048206;28;20211;-64
2022/11/16 09:55:22;;;;;;;0.57;0.57;;;;;;;;;;5048915;28;20239;-67
2022/11/16 09:57:50;;;;;;;1.23;0.43;;;;;;;;;;5048351;28;20565;-66
2022/11/16 10:00:21;;;;;;;2.23;0.50;;;;;;;;;;5050415;28;20222;-64
2022/11/16 10:02:51;;;;;;;5.80;0.67;;;;;;;;;;5048067;28;20635;-65
2022/11/16 10:05:21;;;;;;;1.03;0.30;;;;;;;;;;5047164;28;20333;-65
2022/11/16 10:07:49;;;;;;;0.30;0.30;;;;;;;;;;5047673;28;20200;-65
2022/11/16 10:10:17;;;;;;;1.10;0.50;;;;;;;;;;5048429;28;20663;-64
2022/11/16 10:12:48;;;;;;;0.87;0.50;;;;;;;;;;5047451;28;20208;-64
2022/11/16 10:15:36;;;;;;;0.40;0.40;;;;;;;;;;5050963;28;20231;-63
2022/11/16 10:18:09;;;;;;;1.40;0.90;;;;;;;;;;5037981;28;20199;-71
2022/11/16 10:20:47;;;;;;;2.43;0.80;;;;;;;;;;5064964;28;20204;-64
2022/11/16 10:23:17;;;;;;;0.70;0.70;;;;;;;;;;5053118;28;20211;-65
2022/11/16 10:25:45;;;;;;;3.70;0.70;;;;;;;;;;5069316;28;20214;-65
2022/11/16 10:28:27;;;;;;;1.13;0.70;;;;;;;;;;5066842;28;20264;-64
2022/11/16 10:31:00;;;;;;;0.80;0.60;;;;;;;;;;5055098;28;20218;-64
2022/11/16 10:33:34;;;;;;;0.73;0.60;;;;;;;;;;5057317;28;20227;-65
2022/11/16 10:36:02;;;;;;;1.80;0.80;;;;;;;;;;5049716;28;20219;-64
2022/11/16 10:38:31;;;;;;;1.43;0.70;;;;;;;;;;5053707;28;20208;-64
2022/11/16 10:40:59;;;;;;;3.05;0.70;;;;;;;;;;5051157;28;20203;-65
2022/11/16 10:43:28;;;;;;;4.13;0.87;;;;;;;;;;5053228;28;20216;-64
2022/11/16 10:46:01;;;;;;;5.33;0.50;;;;;;;;;;5051138;28;20212;-64
2022/11/16 10:48:35;;;;;;;0.70;0.70;;;;;;;;;;5054012;28;20294;-64
2022/11/16 10:51:03;;;;;;;3.80;0.67;;;;;;;;;;5064335;28;20203;-65
2022/11/16 10:53:34;;;;;;;1.83;0.67;;;;;;;;;;5055359;28;20222;-64
2022/11/16 10:56:11;;;;;;;0.63;0.43;;;;;;;;;;5048866;28;20228;-64
2022/11/16 10:58:49;;;;;;;4.07;0.70;;;;;;;;;;5045469;28;20199;-64
2022/11/16 11:01:29;;;;;;;2.23;0.50;;;;;;;;;;5044229;28;20211;-65
2022/11/16 11:03:56;;;;;;;0.93;0.53;;;;;;;;;;5043086;28;20302;-64
2022/11/16 11:06:26;;;;;;;0.60;0.60;;;;;;;;;;5046345;28;20227;-64
2022/11/16 11:08:53;;;;;;;0.83;0.50;;;;;;;;;;5047034;28;20211;-64
2022/11/16 11:14:16;;;;;;;1.73;0.60;;;;;;;;;;5025327;28;20615;-63
2022/11/16 11:16:47;;;;;;;0.77;0.77;;;;;;;;;;5057528;28;20231;-63
2022/11/16 11:19:21;;;;;;;1.35;1.10;;;;;;;;;;5056207;28;20208;-61
2022/11/16 11:21:52;;;;;;;6.10;0.75;;;;;;;;;;5044992;28;20884;-62
2022/11/16 11:24:19;;;;;;;1.33;0.90;;;;;;;;;;5045345;28;20211;-60
2022/11/16 11:26:51;;;;;;;2.45;0.45;;;;;;;;;;5045584;28;20203;-62
2022/11/16 11:29:23;;;;;;;0.95;0.57;;;;;;;;;;5047033;28;20239;-66
2022/11/16 11:31:52;;;;;;;3.70;0.47;;;;;;;;;;5044870;28;20211;-63
2022/11/16 11:34:22;;;;;;;2.67;0.70;;;;;;;;;;5044078;28;20216;-66
2022/11/16 11:36:51;;;;;;;4.05;0.85;;;;;;;;;;5046714;28;20227;-62
2022/11/16 11:39:29;;;;;;;3.30;0.70;;;;;;;;;;5045877;28;20216;-62
2022/11/16 11:42:07;;;;;;;2.38;0.77;;;;;;;;;;5048831;28;20622;-63
2022/11/16 11:44:41;;;;;;;1.98;0.82;;;;;;;;;;5027962;28;20208;-63
2022/11/16 11:47:18;;;;;;;1.27;0.50;;;;;;;;;;5043989;28;20204;-64
2022/11/16 11:49:48;;;;;;;1.33;0.60;;;;;;;;;;5044352;28;20441;-63
2022/11/16 11:52:21;;;;;;;3.75;0.75;;;;;;;;;;5046477;28;20215;-63
2022/11/16 11:54:49;;;;;;;1.20;0.40;;;;;;;;;;5046120;28;20665;-62
2022/11/16 11:57:21;;;;;;;1.47;0.57;;;;;;;;;;5047402;28;20375;-64
2022/11/16 11:59:48;;;;;;;1.80;0.70;;;;;;;;;;5048109;28;20287;-61
2022/11/16 12:02:21;;;;;;;1.13;0.45;;;;;;;;;;5048278;28;20846;-63
2022/11/16 12:04:55;;;;;;;2.57;0.70;;;;;;;;;;5032537;28;20212;-61
2022/11/16 12:07:34;;;;;;;0.80;0.80;;;;;;;;;;5041577;28;20215;-63
2022/11/16 12:10:02;;;;;;;2.20;0.77;;;;;;;;;;5043308;28;20215;-63
2022/11/16 12:12:36;;;;;;;3.70;0.77;;;;;;;;;;5039824;28;20682;-63
2022/11/16 12:15:11;;;;;;;0.73;0.53;;;;;;;;;;5045368;28;20231;-62
2022/11/16 12:17:44;;;;;;;2.25;0.65;;;;;;;;;;5044917;28;20388;-63
2022/11/16 12:20:27;;;;;;;2.45;0.60;;;;;;;;;;5047686;28;20277;-63
2022/11/16 12:23:01;;;;;;;0.87;0.50;;;;;;;;;;5026758;28;20212;-62
2022/11/16 12:25:32;;;;;;;3.30;0.77;;;;;;;;;;5045221;28;20690;-63
2022/11/16 12:28:07;;;;;;;0.70;0.63;;;;;;;;;;5047123;28;20204;-63
2022/11/16 12:30:38;;;;;;;5.43;1.00;;;;;;;;;;5040970;28;20202;-64
2022/11/16 12:33:16;;;;;;;1.40;0.60;;;;;;;;;;5045238;28;20219;-64
2022/11/16 12:35:50;;;;;;;8.82;0.90;;;;;;;;;;5048061;28;20234;-64
2022/11/16 12:38:26;;;;;;;2.10;0.67;;;;;;;;;;5041602;28;20693;-64
2022/11/16 12:40:59;;;;;;;0.35;0.35;;;;;;;;;;5047765;28;20207;-64
2022/11/16 12:43:29;;;;;;;4.72;0.60;;;;;;;;;;5048251;28;20211;-64
2022/11/16 12:46:03;;;;;;;2.30;0.55;;;;;;;;;;5046145;28;20576;-64
2022/11/16 12:48:49;;;;;;;0.40;0.40;;;;;;;;;;5045300;28;20203;-63
2022/11/16 12:51:24;;;;;;;4.65;0.90;;;;;;;;;;5048025;28;20222;-63
2022/11/16 12:54:04;;;;;;;4.20;1.03;;;;;;;;;;5052391;28;20739;-64
2022/11/16 12:56:38;;;;;;;1.80;0.50;;;;;;;;;;5054625;28;20231;-63
2022/11/16 12:59:22;;;;;;;0.38;0.38;;;;;;;;;;5055593;28;20429;-63
2022/11/16 13:01:55;;;;;;;2.53;0.40;;;;;;;;;;5045435;28;20199;-64
2022/11/16 13:04:24;;;;;;;0.85;0.80;;;;;;;;;;5045552;28;20571;-64
2022/11/16 13:06:55;;;;;;;0.75;0.50;;;;;;;;;;5043322;28;20203;-63
2022/11/16 13:09:23;;;;;;;2.42;0.60;;;;;;;;;;5053864;28;20203;-66
2022/11/16 13:11:52;;;;;;;2.50;0.80;;;;;;;;;;5047111;28;20567;-63
2022/11/16 13:14:22;;;;;;;10.65;0.68;;;;;;;;;;5043119;28;20222;-63
2022/11/16 13:16:50;;;;;;;2.33;0.47;;;;;;;;;;5050947;28;20239;-63
2022/11/16 13:19:18;;;;;;;1.75;0.80;;;;;;;;;;5052251;28;20218;-64
2022/11/16 13:21:49;;;;;;;0.85;0.85;;;;;;;;;;5046425;28;20211;-64
2022/11/16 13:24:33;;;;;;;4.37;0.97;;;;;;;;;;5045469;28;20566;-64
2022/11/16 13:27:11;;;;;;;36.85;15.70;;;;;;;;;;5049730;28;20207;-65
2022/11/16 13:29:41;;;;;;;9.33;5.27;;;;;;;;;;5048143;28;20716;-65
2022/11/16 13:32:11;;;;;;;3.40;1.73;;;;;;;;;;5048868;28;20210;-63
2022/11/16 13:34:39;;;;;;;0.73;0.50;;;;;;;;;;5050431;28;20219;-64
2022/11/16 13:37:21;;;;;;;1.15;0.50;;;;;;;;;;5048673;28;20223;-69
2022/11/16 13:40:07;;;;;;;0.40;0.40;;;;;;;;;;5050471;28;20200;-67
2022/11/16 13:42:37;;;;;;;0.57;0.50;;;;;;;;;;5048680;28;20220;-66
2022/11/16 13:45:07;;;;;;;2.72;0.73;;;;;;;;;;5046985;28;20621;-67
2022/11/16 13:47:34;;;;;;;4.47;1.15;;;;;;;;;;5048947;28;20212;-64
2022/11/16 13:50:02;;;;;;;0.65;0.65;;;;;;;;;;5058229;28;20556;-67
2022/11/16 13:52:41;;;;;;;3.58;0.88;;;;;;;;;;5047244;28;20211;-68
2022/11/16 13:55:14;;;;;;;3.22;1.10;;;;;;;;;;5045382;28;20223;-66
2022/11/16 13:57:50;;;;;;;0.50;0.50;;;;;;;;;;5050573;28;20218;-66
2022/11/16 14:00:22;;;;;;;1.53;0.60;;;;;;;;;;5047972;28;20218;-65
2022/11/16 14:02:49;;;;;;;0.95;0.52;;;;;;;;;;5047435;28;20671;-67
2022/11/16 14:05:37;;;;;;;2.63;0.43;;;;;;;;;;5048216;28;20207;-67
2022/11/16 14:08:37;;;;;;;0.40;0.40;;;;;;;;;;5049608;28;21021;-66
2022/11/16 14:11:06;;;;;;;1.70;0.60;;;;;;;;;;5050064;28;20214;-67
2022/11/16 14:13:41;;;;;;;1.83;0.50;;;;;;;;;;5056500;28;20218;-67
2022/11/16 14:16:27;;;;;;;0.93;0.40;;;;;;;;;;5052135;28;20231;-66
2022/11/16 14:19:03;;;;;;;3.60;0.50;;;;;;;;;;5049919;28;20207;-67
2022/11/16 14:21:38;;;;;;;0.83;0.80;;;;;;;;;;5050102;28;21029;-66
2022/11/16 14:24:14;;;;;;;2.67;0.70;;;;;;;;;;5049602;28;20207;-66
2022/11/16 14:26:47;;;;;;;0.63;0.50;;;;;;;;;;5049429;28;20216;-67
2022/11/16 14:29:23;;;;;;;1.03;0.50;;;;;;;;;;5047070;28;20241;-66
2022/11/16 14:31:52;;;;;;;1.70;0.50;;;;;;;;;;5049331;28;20303;-66
2022/11/16 14:34:21;;;;;;;0.47;0.40;;;;;;;;;;5057421;28;20235;-64
2022/11/16 14:36:48;;;;;;;2.30;0.80;;;;;;;;;;5053359;28;20235;-63
2022/11/16 14:39:17;;;;;;;1.30;0.40;;;;;;;;;;5050357;28;20674;-63
2022/11/16 14:41:47;;;;;;;0.40;0.40;;;;;;;;;;5049700;28;20204;-64
2022/11/16 14:44:18;;;;;;;1.63;0.57;;;;;;;;;;5050101;28;20204;-62
2022/11/16 14:46:45;;;;;;;2.37;0.50;;;;;;;;;;5049901;28;20207;-64
2022/11/16 14:49:13;;;;;;;2.97;0.77;;;;;;;;;;5049348;28;20763;-65
2022/11/16 14:51:44;;;;;;;1.17;0.87;;;;;;;;;;5046087;28;20684;-65
2022/11/16 14:54:13;;;;;;;0.70;0.70;;;;;;;;;;5047959;28;20781;-66
2022/11/16 14:59:37;;;;;;;0.50;0.50;;;;;;;;;;5147030;27;20288;-65
2022/11/16 15:02:08;;;;;;;1.53;0.60;;;;;;;;;;5124440;28;20291;-66
2022/11/16 15:04:35;;;;;;;2.70;0.50;;;;;;;;;;5112868;27;20214;-66
2022/11/16 15:07:03;;;;;;;2.63;0.60;;;;;;;;;;5125373;28;20209;-69
2022/11/16 15:09:33;;;;;;;1.50;0.40;;;;;;;;;;5125499;27;20217;-67
2022/11/16 15:14:50;;;;;;;2.97;0.60;;;;;;;;;;5124801;28;20273;-66
2022/11/16 15:17:19;;;;;;;0.60;0.57;;;;;;;;;;5124760;28;20201;-65
2022/11/16 15:19:54;;;;;;;0.67;0.67;;;;;;;;;;5123436;27;20216;-65
2022/11/16 15:22:21;;;;;;;2.90;0.60;;;;;;;;;;5125084;27;20300;-66
2022/11/16 15:24:54;;;;;;;3.27;0.93;;;;;;;;;;5125136;27;20731;-66
2022/11/16 15:27:26;;;;;;;1.17;0.57;;;;;;;;;;5123982;27;20213;-66
2022/11/16 15:29:55;;;;;;;3.33;0.53;;;;;;;;;;5125596;28;20201;-66
2022/11/16 15:32:22;;;;;;;1.17;0.70;;;;;;;;;;5123458;28;20238;-66
2022/11/16 15:34:52;;;;;;;0.60;0.60;;;;;;;;;;5122781;28;20205;-65
2022/11/16 15:37:27;;;;;;;2.10;0.73;;;;;;;;;;5125280;28;20201;-65
2022/11/16 15:39:55;;;;;;;0.50;0.50;;;;;;;;;;5121048;27;20980;-65
2022/11/16 15:42:23;;;;;;;1.90;0.73;;;;;;;;;;5123896;28;20205;-65
2022/11/16 15:44:50;;;;;;;0.60;0.60;;;;;;;;;;5124676;28;20288;-65
2022/11/16 15:47:19;;;;;;;1.17;0.63;;;;;;;;;;5123391;28;20338;-66
2022/11/16 15:49:48;;;;;;;5.20;0.80;;;;;;;;;;5120090;28;21002;-66
2022/11/16 15:52:41;;;;;;;1.67;0.70;;;;;;;;;;5121606;28;20216;-66